sensor_id;sensor_type;location;lat;lon;timestamp;P1;durP1;ratioP1;P2;durP2;ratioP2
3133;SDS011;1577;49.912;10.924;2024-01-11T00:00:44;29.52;;;17.35;;
3133;SDS011;1577;49.912;10.924;2024-01-11T00:03:09;40.10;;;19.20;;
3133;SDS011;1577;49.912;10.924;2024-01-11T00:05:35;41.27;;;19.90;;
3133;SDS011;1577;49.912;10.924;2024-01-11T00:08:01;38.00;;;20.93;;
3133;SDS011;1577;49.912;10.924;2024-01-11T00:10:27;38.10;;;21.02;;
3133;SDS011;1577;49.912;10.924;2024-01-11T00:12:53;40.87;;;20.00;;
3133;SDS011;1577;49.912;10.924;2024-01-11T00:15:18;38.67;;;20.70;;
3133;SDS011;1577;49.912;10.924;2024-01-11T00:17:44;40.57;;;21.40;;
3133;SDS011;1577;49.912;10.924;2024-01-11T00:20:10;38.47;;;20.67;;
3133;SDS011;1577;49.912;10.924;2024-01-11T00:22:36;39.17;;;18.40;;
3133;SDS011;1577;49.912;10.924;2024-01-11T00:25:02;39.33;;;18.70;;
3133;SDS011;1577;49.912;10.924;2024-01-11T00:27:28;36.10;;;18.80;;
3133;SDS011;1577;49.912;10.924;2024-01-11T00:29:54;35.00;;;18.57;;
3133;SDS011;1577;49.912;10.924;2024-01-11T00:32:20;37.53;;;19.47;;
3133;SDS011;1577;49.912;10.924;2024-01-11T00:34:48;38.83;;;19.95;;
3133;SDS011;1577;49.912;10.924;2024-01-11T00:37:14;41.50;;;19.80;;
3133;SDS011;1577;49.912;10.924;2024-01-11T00:39:39;39.40;;;20.03;;
3133;SDS011;1577;49.912;10.924;2024-01-11T00:42:05;44.93;;;20.60;;
3133;SDS011;1577;49.912;10.924;2024-01-11T00:44:31;39.87;;;20.00;;
3133;SDS011;1577;49.912;10.924;2024-01-11T00:46:56;42.73;;;20.23;;
3133;SDS011;1577;49.912;10.924;2024-01-11T00:49:22;36.53;;;20.17;;
3133;SDS011;1577;49.912;10.924;2024-01-11T00:51:47;40.30;;;18.30;;
3133;SDS011;1577;49.912;10.924;2024-01-11T00:54:13;35.77;;;19.20;;
3133;SDS011;1577;49.912;10.924;2024-01-11T00:56:39;34.35;;;18.52;;
3133;SDS011;1577;49.912;10.924;2024-01-11T00:59:04;40.10;;;18.87;;
3133;SDS011;1577;49.912;10.924;2024-01-11T01:01:30;36.80;;;17.83;;
3133;SDS011;1577;49.912;10.924;2024-01-11T01:03:56;38.27;;;18.20;;
3133;SDS011;1577;49.912;10.924;2024-01-11T01:06:21;35.90;;;17.60;;
3133;SDS011;1577;49.912;10.924;2024-01-11T01:08:47;35.27;;;17.07;;
3133;SDS011;1577;49.912;10.924;2024-01-11T01:11:12;37.40;;;19.27;;
3133;SDS011;1577;49.912;10.924;2024-01-11T01:13:38;31.37;;;17.73;;
3133;SDS011;1577;49.912;10.924;2024-01-11T01:16:04;33.17;;;17.70;;
3133;SDS011;1577;49.912;10.924;2024-01-11T01:18:29;34.80;;;18.00;;
3133;SDS011;1577;49.912;10.924;2024-01-11T01:20:55;39.60;;;17.93;;
3133;SDS011;1577;49.912;10.924;2024-01-11T01:23:21;32.90;;;17.70;;
3133;SDS011;1577;49.912;10.924;2024-01-11T01:25:47;31.87;;;17.90;;
3133;SDS011;1577;49.912;10.924;2024-01-11T01:28:13;36.80;;;17.80;;
3133;SDS011;1577;49.912;10.924;2024-01-11T01:30:38;43.83;;;18.97;;
3133;SDS011;1577;49.912;10.924;2024-01-11T01:33:04;37.80;;;17.87;;
3133;SDS011;1577;49.912;10.924;2024-01-11T01:35:29;30.20;;;17.43;;
3133;SDS011;1577;49.912;10.924;2024-01-11T01:37:55;32.07;;;17.40;;
3133;SDS011;1577;49.912;10.924;2024-01-11T01:40:21;32.00;;;17.20;;
3133;SDS011;1577;49.912;10.924;2024-01-11T01:42:48;38.73;;;18.77;;
3133;SDS011;1577;49.912;10.924;2024-01-11T01:45:14;36.40;;;18.15;;
3133;SDS011;1577;49.912;10.924;2024-01-11T01:47:41;27.75;;;15.55;;
3133;SDS011;1577;49.912;10.924;2024-01-11T01:50:07;38.85;;;15.93;;
3133;SDS011;1577;49.912;10.924;2024-01-11T01:52:35;38.53;;;17.85;;
3133;SDS011;1577;49.912;10.924;2024-01-11T01:55:03;36.92;;;18.48;;
3133;SDS011;1577;49.912;10.924;2024-01-11T01:57:30;37.30;;;17.30;;
3133;SDS011;1577;49.912;10.924;2024-01-11T01:59:59;33.65;;;17.52;;
3133;SDS011;1577;49.912;10.924;2024-01-11T02:02:26;33.08;;;17.45;;
3133;SDS011;1577;49.912;10.924;2024-01-11T02:04:53;33.85;;;18.52;;
3133;SDS011;1577;49.912;10.924;2024-01-11T02:07:19;33.87;;;17.90;;
3133;SDS011;1577;49.912;10.924;2024-01-11T02:09:45;32.22;;;18.27;;
3133;SDS011;1577;49.912;10.924;2024-01-11T02:12:12;37.42;;;17.20;;
3133;SDS011;1577;49.912;10.924;2024-01-11T02:14:38;35.40;;;16.20;;
3133;SDS011;1577;49.912;10.924;2024-01-11T02:17:03;34.13;;;17.33;;
3133;SDS011;1577;49.912;10.924;2024-01-11T02:19:29;34.60;;;16.97;;
3133;SDS011;1577;49.912;10.924;2024-01-11T02:21:55;35.63;;;16.30;;
3133;SDS011;1577;49.912;10.924;2024-01-11T02:24:25;33.10;;;16.35;;
3133;SDS011;1577;49.912;10.924;2024-01-11T02:27:01;29.33;;;15.20;;
3133;SDS011;1577;49.912;10.924;2024-01-11T02:29:28;31.08;;;16.30;;
3133;SDS011;1577;49.912;10.924;2024-01-11T02:31:55;30.90;;;16.80;;
3133;SDS011;1577;49.912;10.924;2024-01-11T02:34:24;31.40;;;16.65;;
3133;SDS011;1577;49.912;10.924;2024-01-11T02:36:51;35.13;;;18.58;;
3133;SDS011;1577;49.912;10.924;2024-01-11T02:39:18;31.80;;;16.33;;
3133;SDS011;1577;49.912;10.924;2024-01-11T02:41:44;33.30;;;16.42;;
3133;SDS011;1577;49.912;10.924;2024-01-11T02:44:10;31.37;;;16.60;;
3133;SDS011;1577;49.912;10.924;2024-01-11T02:46:36;35.77;;;18.67;;
3133;SDS011;1577;49.912;10.924;2024-01-11T02:49:01;34.20;;;16.60;;
3133;SDS011;1577;49.912;10.924;2024-01-11T02:51:27;32.70;;;17.57;;
3133;SDS011;1577;49.912;10.924;2024-01-11T02:53:53;32.20;;;15.63;;
3133;SDS011;1577;49.912;10.924;2024-01-11T02:56:18;35.13;;;18.90;;
3133;SDS011;1577;49.912;10.924;2024-01-11T02:58:44;33.53;;;17.23;;
3133;SDS011;1577;49.912;10.924;2024-01-11T03:01:10;32.00;;;16.93;;
3133;SDS011;1577;49.912;10.924;2024-01-11T03:03:35;30.10;;;17.47;;
3133;SDS011;1577;49.912;10.924;2024-01-11T03:06:01;36.08;;;17.30;;
3133;SDS011;1577;49.912;10.924;2024-01-11T03:08:27;40.50;;;16.42;;
3133;SDS011;1577;49.912;10.924;2024-01-11T03:10:53;32.03;;;16.13;;
3133;SDS011;1577;49.912;10.924;2024-01-11T03:13:18;28.27;;;15.00;;
3133;SDS011;1577;49.912;10.924;2024-01-11T03:15:44;33.40;;;17.27;;
3133;SDS011;1577;49.912;10.924;2024-01-11T03:18:10;34.47;;;17.33;;
3133;SDS011;1577;49.912;10.924;2024-01-11T03:20:35;33.40;;;16.70;;
3133;SDS011;1577;49.912;10.924;2024-01-11T03:23:01;27.40;;;16.50;;
3133;SDS011;1577;49.912;10.924;2024-01-11T03:25:27;31.33;;;16.70;;
3133;SDS011;1577;49.912;10.924;2024-01-11T03:27:54;34.75;;;16.85;;
3133;SDS011;1577;49.912;10.924;2024-01-11T03:30:19;32.93;;;16.57;;
3133;SDS011;1577;49.912;10.924;2024-01-11T03:32:45;32.10;;;16.20;;
3133;SDS011;1577;49.912;10.924;2024-01-11T03:35:10;28.37;;;16.07;;
3133;SDS011;1577;49.912;10.924;2024-01-11T03:37:36;33.67;;;17.10;;
3133;SDS011;1577;49.912;10.924;2024-01-11T03:40:04;37.27;;;16.83;;
3133;SDS011;1577;49.912;10.924;2024-01-11T03:42:30;34.30;;;17.38;;
3133;SDS011;1577;49.912;10.924;2024-01-11T03:44:56;32.43;;;15.93;;
3133;SDS011;1577;49.912;10.924;2024-01-11T03:47:22;33.90;;;16.97;;
3133;SDS011;1577;49.912;10.924;2024-01-11T03:49:47;31.13;;;15.57;;
3133;SDS011;1577;49.912;10.924;2024-01-11T03:52:13;28.87;;;15.70;;
3133;SDS011;1577;49.912;10.924;2024-01-11T03:54:38;31.57;;;17.00;;
3133;SDS011;1577;49.912;10.924;2024-01-11T03:57:04;31.13;;;18.70;;
3133;SDS011;1577;49.912;10.924;2024-01-11T03:59:31;34.42;;;16.42;;
3133;SDS011;1577;49.912;10.924;2024-01-11T04:01:57;31.70;;;16.40;;
3133;SDS011;1577;49.912;10.924;2024-01-11T04:04:23;32.60;;;17.23;;
3133;SDS011;1577;49.912;10.924;2024-01-11T04:06:48;35.73;;;18.70;;
3133;SDS011;1577;49.912;10.924;2024-01-11T04:09:14;37.78;;;18.27;;
3133;SDS011;1577;49.912;10.924;2024-01-11T04:11:40;40.20;;;18.20;;
3133;SDS011;1577;49.912;10.924;2024-01-11T04:14:06;40.30;;;16.37;;
3133;SDS011;1577;49.912;10.924;2024-01-11T04:16:31;34.07;;;17.30;;
3133;SDS011;1577;49.912;10.924;2024-01-11T04:18:57;39.83;;;18.10;;
3133;SDS011;1577;49.912;10.924;2024-01-11T04:21:23;31.70;;;16.07;;
3133;SDS011;1577;49.912;10.924;2024-01-11T04:23:50;31.98;;;16.67;;
3133;SDS011;1577;49.912;10.924;2024-01-11T04:26:16;31.60;;;17.77;;
3133;SDS011;1577;49.912;10.924;2024-01-11T04:28:42;34.80;;;16.55;;
3133;SDS011;1577;49.912;10.924;2024-01-11T04:31:08;42.47;;;17.30;;
3133;SDS011;1577;49.912;10.924;2024-01-11T04:33:34;32.30;;;15.90;;
3133;SDS011;1577;49.912;10.924;2024-01-11T04:35:59;33.70;;;18.20;;
3133;SDS011;1577;49.912;10.924;2024-01-11T04:38:25;36.13;;;17.23;;
3133;SDS011;1577;49.912;10.924;2024-01-11T04:40:50;33.27;;;15.90;;
3133;SDS011;1577;49.912;10.924;2024-01-11T04:43:16;34.13;;;16.80;;
3133;SDS011;1577;49.912;10.924;2024-01-11T04:45:41;37.20;;;17.70;;
3133;SDS011;1577;49.912;10.924;2024-01-11T04:48:07;35.03;;;17.37;;
3133;SDS011;1577;49.912;10.924;2024-01-11T04:50:33;35.87;;;16.57;;
3133;SDS011;1577;49.912;10.924;2024-01-11T04:52:58;32.33;;;16.60;;
3133;SDS011;1577;49.912;10.924;2024-01-11T04:55:24;25.90;;;15.60;;
3133;SDS011;1577;49.912;10.924;2024-01-11T04:57:49;32.80;;;16.50;;
3133;SDS011;1577;49.912;10.924;2024-01-11T05:00:15;30.60;;;15.70;;
3133;SDS011;1577;49.912;10.924;2024-01-11T05:02:41;30.17;;;14.63;;
3133;SDS011;1577;49.912;10.924;2024-01-11T05:05:06;31.97;;;15.60;;
3133;SDS011;1577;49.912;10.924;2024-01-11T05:07:32;28.87;;;15.00;;
3133;SDS011;1577;49.912;10.924;2024-01-11T05:10:00;32.30;;;15.50;;
3133;SDS011;1577;49.912;10.924;2024-01-11T05:12:26;27.07;;;15.30;;
3133;SDS011;1577;49.912;10.924;2024-01-11T05:14:51;32.07;;;16.43;;
3133;SDS011;1577;49.912;10.924;2024-01-11T05:17:17;34.70;;;15.80;;
3133;SDS011;1577;49.912;10.924;2024-01-11T05:19:42;32.10;;;17.37;;
3133;SDS011;1577;49.912;10.924;2024-01-11T05:22:08;28.80;;;14.43;;
3133;SDS011;1577;49.912;10.924;2024-01-11T05:24:33;31.20;;;15.80;;
3133;SDS011;1577;49.912;10.924;2024-01-11T05:26:59;28.87;;;14.50;;
3133;SDS011;1577;49.912;10.924;2024-01-11T05:29:25;28.43;;;15.23;;
3133;SDS011;1577;49.912;10.924;2024-01-11T05:31:50;32.57;;;20.13;;
3133;SDS011;1577;49.912;10.924;2024-01-11T05:34:16;32.07;;;17.80;;
3133;SDS011;1577;49.912;10.924;2024-01-11T05:36:41;32.83;;;16.63;;
3133;SDS011;1577;49.912;10.924;2024-01-11T05:39:07;34.13;;;18.87;;
3133;SDS011;1577;49.912;10.924;2024-01-11T05:41:32;33.27;;;20.50;;
3133;SDS011;1577;49.912;10.924;2024-01-11T05:43:58;39.10;;;20.37;;
3133;SDS011;1577;49.912;10.924;2024-01-11T05:46:24;35.50;;;18.23;;
3133;SDS011;1577;49.912;10.924;2024-01-11T05:48:49;38.13;;;18.97;;
3133;SDS011;1577;49.912;10.924;2024-01-11T05:51:15;34.13;;;17.97;;
3133;SDS011;1577;49.912;10.924;2024-01-11T05:53:41;32.40;;;17.97;;
3133;SDS011;1577;49.912;10.924;2024-01-11T05:56:09;33.70;;;18.20;;
3133;SDS011;1577;49.912;10.924;2024-01-11T05:58:36;30.98;;;18.30;;
3133;SDS011;1577;49.912;10.924;2024-01-11T06:01:02;31.17;;;17.02;;
3133;SDS011;1577;49.912;10.924;2024-01-11T06:03:28;40.42;;;19.80;;
3133;SDS011;1577;49.912;10.924;2024-01-11T06:05:55;40.17;;;20.52;;
3133;SDS011;1577;49.912;10.924;2024-01-11T06:08:20;40.93;;;21.77;;
3133;SDS011;1577;49.912;10.924;2024-01-11T06:10:46;39.63;;;21.77;;
3133;SDS011;1577;49.912;10.924;2024-01-11T06:13:12;42.45;;;19.95;;
3133;SDS011;1577;49.912;10.924;2024-01-11T06:15:37;40.07;;;21.07;;
3133;SDS011;1577;49.912;10.924;2024-01-11T06:18:03;35.30;;;18.67;;
3133;SDS011;1577;49.912;10.924;2024-01-11T06:20:29;43.88;;;20.35;;
3133;SDS011;1577;49.912;10.924;2024-01-11T06:22:55;37.60;;;20.57;;
3133;SDS011;1577;49.912;10.924;2024-01-11T06:25:21;39.63;;;21.33;;
3133;SDS011;1577;49.912;10.924;2024-01-11T06:27:46;37.10;;;21.37;;
3133;SDS011;1577;49.912;10.924;2024-01-11T06:30:12;39.00;;;21.40;;
3133;SDS011;1577;49.912;10.924;2024-01-11T06:32:38;36.67;;;19.13;;
3133;SDS011;1577;49.912;10.924;2024-01-11T06:35:04;37.83;;;17.70;;
3133;SDS011;1577;49.912;10.924;2024-01-11T06:37:30;36.33;;;18.90;;
3133;SDS011;1577;49.912;10.924;2024-01-11T06:39:55;38.40;;;17.80;;
3133;SDS011;1577;49.912;10.924;2024-01-11T06:42:21;35.42;;;17.73;;
3133;SDS011;1577;49.912;10.924;2024-01-11T06:44:47;39.83;;;18.60;;
3133;SDS011;1577;49.912;10.924;2024-01-11T06:47:13;34.40;;;18.27;;
3133;SDS011;1577;49.912;10.924;2024-01-11T06:49:38;35.53;;;18.00;;
3133;SDS011;1577;49.912;10.924;2024-01-11T06:52:07;36.30;;;18.25;;
3133;SDS011;1577;49.912;10.924;2024-01-11T06:54:32;38.60;;;19.40;;
3133;SDS011;1577;49.912;10.924;2024-01-11T06:56:58;39.93;;;18.53;;
3133;SDS011;1577;49.912;10.924;2024-01-11T06:59:24;36.73;;;18.77;;
3133;SDS011;1577;49.912;10.924;2024-01-11T07:01:49;31.17;;;18.90;;
3133;SDS011;1577;49.912;10.924;2024-01-11T07:04:15;33.60;;;17.27;;
3133;SDS011;1577;49.912;10.924;2024-01-11T07:06:40;35.63;;;18.47;;
3133;SDS011;1577;49.912;10.924;2024-01-11T07:09:06;51.97;;;26.07;;
3133;SDS011;1577;49.912;10.924;2024-01-11T07:11:32;34.07;;;18.63;;
3133;SDS011;1577;49.912;10.924;2024-01-11T07:13:58;45.83;;;21.10;;
3133;SDS011;1577;49.912;10.924;2024-01-11T07:16:23;37.25;;;19.85;;
3133;SDS011;1577;49.912;10.924;2024-01-11T07:18:49;42.67;;;21.33;;
3133;SDS011;1577;49.912;10.924;2024-01-11T07:21:21;36.43;;;20.10;;
3133;SDS011;1577;49.912;10.924;2024-01-11T07:24:05;37.67;;;19.58;;
3133;SDS011;1577;49.912;10.924;2024-01-11T07:26:31;44.17;;;18.80;;
3133;SDS011;1577;49.912;10.924;2024-01-11T07:28:57;37.83;;;18.73;;
3133;SDS011;1577;49.912;10.924;2024-01-11T07:31:22;36.17;;;20.00;;
3133;SDS011;1577;49.912;10.924;2024-01-11T07:33:48;37.90;;;19.80;;
3133;SDS011;1577;49.912;10.924;2024-01-11T07:36:13;45.83;;;22.77;;
3133;SDS011;1577;49.912;10.924;2024-01-11T07:38:39;42.00;;;22.90;;
3133;SDS011;1577;49.912;10.924;2024-01-11T07:41:05;48.60;;;25.60;;
3133;SDS011;1577;49.912;10.924;2024-01-11T07:43:31;52.35;;;25.15;;
3133;SDS011;1577;49.912;10.924;2024-01-11T07:46:00;53.80;;;25.13;;
3133;SDS011;1577;49.912;10.924;2024-01-11T07:48:30;52.28;;;26.23;;
3133;SDS011;1577;49.912;10.924;2024-01-11T07:50:56;37.50;;;19.90;;
3133;SDS011;1577;49.912;10.924;2024-01-11T07:53:22;45.42;;;22.45;;
3133;SDS011;1577;49.912;10.924;2024-01-11T07:55:48;44.77;;;21.27;;
3133;SDS011;1577;49.912;10.924;2024-01-11T07:58:14;39.50;;;20.57;;
3133;SDS011;1577;49.912;10.924;2024-01-11T08:00:40;37.40;;;19.25;;
3133;SDS011;1577;49.912;10.924;2024-01-11T08:03:05;40.97;;;20.30;;
3133;SDS011;1577;49.912;10.924;2024-01-11T08:05:31;37.83;;;18.83;;
3133;SDS011;1577;49.912;10.924;2024-01-11T08:07:57;37.70;;;19.00;;
3133;SDS011;1577;49.912;10.924;2024-01-11T08:10:26;35.08;;;19.77;;
3133;SDS011;1577;49.912;10.924;2024-01-11T08:12:52;43.70;;;20.80;;
3133;SDS011;1577;49.912;10.924;2024-01-11T08:15:17;38.10;;;20.33;;
3133;SDS011;1577;49.912;10.924;2024-01-11T08:17:46;41.53;;;21.37;;
3133;SDS011;1577;49.912;10.924;2024-01-11T08:20:11;48.50;;;26.23;;
3133;SDS011;1577;49.912;10.924;2024-01-11T08:22:43;48.40;;;25.13;;
3133;SDS011;1577;49.912;10.924;2024-01-11T08:25:10;42.55;;;17.92;;
3133;SDS011;1577;49.912;10.924;2024-01-11T08:27:36;34.53;;;19.67;;
3133;SDS011;1577;49.912;10.924;2024-01-11T08:30:02;37.53;;;19.73;;
3133;SDS011;1577;49.912;10.924;2024-01-11T08:32:29;37.38;;;18.90;;
3133;SDS011;1577;49.912;10.924;2024-01-11T08:34:56;34.90;;;18.65;;
3133;SDS011;1577;49.912;10.924;2024-01-11T08:37:22;33.83;;;18.58;;
3133;SDS011;1577;49.912;10.924;2024-01-11T08:39:48;30.10;;;17.30;;
3133;SDS011;1577;49.912;10.924;2024-01-11T08:42:14;35.83;;;16.73;;
3133;SDS011;1577;49.912;10.924;2024-01-11T08:44:43;33.45;;;17.08;;
3133;SDS011;1577;49.912;10.924;2024-01-11T08:47:09;25.83;;;16.20;;
3133;SDS011;1577;49.912;10.924;2024-01-11T08:49:38;28.67;;;15.07;;
3133;SDS011;1577;49.912;10.924;2024-01-11T08:52:04;40.83;;;22.05;;
3133;SDS011;1577;49.912;10.924;2024-01-11T08:54:31;32.25;;;15.45;;
3133;SDS011;1577;49.912;10.924;2024-01-11T08:56:59;29.58;;;17.27;;
3133;SDS011;1577;49.912;10.924;2024-01-11T08:59:26;30.60;;;17.50;;
3133;SDS011;1577;49.912;10.924;2024-01-11T09:01:52;33.90;;;17.37;;
3133;SDS011;1577;49.912;10.924;2024-01-11T09:04:17;27.87;;;16.60;;
3133;SDS011;1577;49.912;10.924;2024-01-11T09:06:43;29.83;;;17.47;;
3133;SDS011;1577;49.912;10.924;2024-01-11T09:09:12;31.73;;;16.88;;
3133;SDS011;1577;49.912;10.924;2024-01-11T09:11:38;30.00;;;16.70;;
3133;SDS011;1577;49.912;10.924;2024-01-11T09:14:06;37.03;;;17.58;;
3133;SDS011;1577;49.912;10.924;2024-01-11T09:16:31;31.38;;;17.00;;
3133;SDS011;1577;49.912;10.924;2024-01-11T09:18:58;31.17;;;18.50;;
3133;SDS011;1577;49.912;10.924;2024-01-11T09:21:25;32.90;;;17.95;;
3133;SDS011;1577;49.912;10.924;2024-01-11T09:23:51;32.63;;;17.83;;
3133;SDS011;1577;49.912;10.924;2024-01-11T09:26:17;41.90;;;21.30;;
3133;SDS011;1577;49.912;10.924;2024-01-11T09:28:42;29.07;;;18.00;;
3133;SDS011;1577;49.912;10.924;2024-01-11T09:31:08;35.63;;;19.50;;
3133;SDS011;1577;49.912;10.924;2024-01-11T09:33:33;31.60;;;18.97;;
3133;SDS011;1577;49.912;10.924;2024-01-11T09:35:59;29.23;;;17.90;;
3133;SDS011;1577;49.912;10.924;2024-01-11T09:38:24;31.43;;;16.43;;
3133;SDS011;1577;49.912;10.924;2024-01-11T09:41:05;36.30;;;16.60;;
3133;SDS011;1577;49.912;10.924;2024-01-11T09:43:33;32.83;;;17.02;;
3133;SDS011;1577;49.912;10.924;2024-01-11T09:46:05;26.48;;;16.20;;
3133;SDS011;1577;49.912;10.924;2024-01-11T09:48:35;32.00;;;16.50;;
3133;SDS011;1577;49.912;10.924;2024-01-11T09:51:02;32.22;;;17.77;;
3133;SDS011;1577;49.912;10.924;2024-01-11T09:53:28;28.83;;;16.08;;
3133;SDS011;1577;49.912;10.924;2024-01-11T09:56:00;30.58;;;17.83;;
3133;SDS011;1577;49.912;10.924;2024-01-11T09:58:26;30.55;;;18.00;;
3133;SDS011;1577;49.912;10.924;2024-01-11T10:00:54;29.07;;;16.67;;
3133;SDS011;1577;49.912;10.924;2024-01-11T10:03:23;33.47;;;17.10;;
3133;SDS011;1577;49.912;10.924;2024-01-11T10:05:49;30.65;;;16.80;;
3133;SDS011;1577;49.912;10.924;2024-01-11T10:08:20;29.63;;;15.75;;
3133;SDS011;1577;49.912;10.924;2024-01-11T10:10:47;29.88;;;17.60;;
3133;SDS011;1577;49.912;10.924;2024-01-11T10:13:13;29.67;;;16.65;;
3133;SDS011;1577;49.912;10.924;2024-01-11T10:15:39;29.42;;;17.33;;
3133;SDS011;1577;49.912;10.924;2024-01-11T10:18:05;30.93;;;16.97;;
3133;SDS011;1577;49.912;10.924;2024-01-11T10:20:30;35.50;;;17.10;;
3133;SDS011;1577;49.912;10.924;2024-01-11T10:22:57;30.40;;;17.58;;
3133;SDS011;1577;49.912;10.924;2024-01-11T10:25:23;27.67;;;16.30;;
3133;SDS011;1577;49.912;10.924;2024-01-11T10:27:49;30.33;;;18.03;;
3133;SDS011;1577;49.912;10.924;2024-01-11T10:30:15;29.00;;;16.10;;
3133;SDS011;1577;49.912;10.924;2024-01-11T10:32:41;27.05;;;14.88;;
3133;SDS011;1577;49.912;10.924;2024-01-11T10:35:08;30.88;;;16.95;;
3133;SDS011;1577;49.912;10.924;2024-01-11T10:37:35;28.60;;;17.05;;
3133;SDS011;1577;49.912;10.924;2024-01-11T10:40:04;27.40;;;15.90;;
3133;SDS011;1577;49.912;10.924;2024-01-11T10:42:34;31.75;;;16.55;;
3133;SDS011;1577;49.912;10.924;2024-01-11T10:45:02;34.90;;;19.13;;
3133;SDS011;1577;49.912;10.924;2024-01-11T10:47:32;32.30;;;18.23;;
3133;SDS011;1577;49.912;10.924;2024-01-11T10:50:00;32.42;;;19.45;;
3133;SDS011;1577;49.912;10.924;2024-01-11T10:52:28;28.23;;;16.98;;
3133;SDS011;1577;49.912;10.924;2024-01-11T10:54:57;32.10;;;16.35;;
3133;SDS011;1577;49.912;10.924;2024-01-11T10:57:24;32.58;;;16.83;;
3133;SDS011;1577;49.912;10.924;2024-01-11T10:59:50;35.60;;;17.70;;
3133;SDS011;1577;49.912;10.924;2024-01-11T11:02:17;32.10;;;17.70;;
3133;SDS011;1577;49.912;10.924;2024-01-11T11:04:44;28.65;;;15.52;;
3133;SDS011;1577;49.912;10.924;2024-01-11T11:07:11;28.70;;;16.20;;
3133;SDS011;1577;49.912;10.924;2024-01-11T11:09:39;30.27;;;15.45;;
3133;SDS011;1577;49.912;10.924;2024-01-11T11:12:09;30.45;;;16.95;;
3133;SDS011;1577;49.912;10.924;2024-01-11T11:14:36;31.25;;;15.18;;
3133;SDS011;1577;49.912;10.924;2024-01-11T11:17:03;31.65;;;16.85;;
3133;SDS011;1577;49.912;10.924;2024-01-11T11:19:30;24.40;;;16.00;;
3133;SDS011;1577;49.912;10.924;2024-01-11T11:21:55;26.27;;;15.50;;
3133;SDS011;1577;49.912;10.924;2024-01-11T11:24:21;25.57;;;16.23;;
3133;SDS011;1577;49.912;10.924;2024-01-11T11:26:47;25.50;;;14.47;;
3133;SDS011;1577;49.912;10.924;2024-01-11T11:29:12;30.10;;;15.00;;
3133;SDS011;1577;49.912;10.924;2024-01-11T11:31:46;26.20;;;14.35;;
3133;SDS011;1577;49.912;10.924;2024-01-11T11:37:09;32.15;;;17.98;;
3133;SDS011;1577;49.912;10.924;2024-01-11T11:39:36;37.25;;;20.42;;
3133;SDS011;1577;49.912;10.924;2024-01-11T11:42:03;29.45;;;15.38;;
3133;SDS011;1577;49.912;10.924;2024-01-11T11:44:29;26.50;;;14.57;;
3133;SDS011;1577;49.912;10.924;2024-01-11T11:46:55;32.85;;;15.43;;
3133;SDS011;1577;49.912;10.924;2024-01-11T11:49:57;23.75;;;14.23;;
3133;SDS011;1577;49.912;10.924;2024-01-11T11:52:38;26.30;;;14.80;;
3133;SDS011;1577;49.912;10.924;2024-01-11T11:55:07;23.95;;;14.23;;
3133;SDS011;1577;49.912;10.924;2024-01-11T11:57:33;27.02;;;15.10;;
3133;SDS011;1577;49.912;10.924;2024-01-11T12:00:00;28.55;;;15.18;;
3133;SDS011;1577;49.912;10.924;2024-01-11T12:02:36;27.20;;;15.65;;
3133;SDS011;1577;49.912;10.924;2024-01-11T12:05:02;26.40;;;15.53;;
3133;SDS011;1577;49.912;10.924;2024-01-11T12:07:29;23.45;;;14.05;;
3133;SDS011;1577;49.912;10.924;2024-01-11T12:09:55;30.05;;;15.38;;
3133;SDS011;1577;49.912;10.924;2024-01-11T12:12:21;26.00;;;14.70;;
3133;SDS011;1577;49.912;10.924;2024-01-11T12:14:47;32.70;;;19.00;;
3133;SDS011;1577;49.912;10.924;2024-01-11T12:17:14;26.40;;;14.90;;
3133;SDS011;1577;49.912;10.924;2024-01-11T12:19:40;24.83;;;14.27;;
3133;SDS011;1577;49.912;10.924;2024-01-11T12:22:05;29.27;;;16.13;;
3133;SDS011;1577;49.912;10.924;2024-01-11T12:24:31;25.42;;;14.00;;
3133;SDS011;1577;49.912;10.924;2024-01-11T12:26:59;26.58;;;16.70;;
3133;SDS011;1577;49.912;10.924;2024-01-11T12:29:25;22.42;;;12.38;;
3133;SDS011;1577;49.912;10.924;2024-01-11T12:31:54;21.48;;;12.43;;
3133;SDS011;1577;49.912;10.924;2024-01-11T12:34:24;24.42;;;14.10;;
3133;SDS011;1577;49.912;10.924;2024-01-11T12:36:51;20.98;;;12.88;;
3133;SDS011;1577;49.912;10.924;2024-01-11T12:39:18;26.02;;;13.27;;
3133;SDS011;1577;49.912;10.924;2024-01-11T12:41:47;24.38;;;13.48;;
3133;SDS011;1577;49.912;10.924;2024-01-11T12:44:19;20.65;;;12.35;;
3133;SDS011;1577;49.912;10.924;2024-01-11T12:46:47;23.20;;;13.43;;
3133;SDS011;1577;49.912;10.924;2024-01-11T12:49:14;22.13;;;11.63;;
3133;SDS011;1577;49.912;10.924;2024-01-11T12:51:40;53.30;;;27.55;;
3133;SDS011;1577;49.912;10.924;2024-01-11T12:54:10;49.03;;;26.33;;
3133;SDS011;1577;49.912;10.924;2024-01-11T12:56:42;49.03;;;27.48;;
3133;SDS011;1577;49.912;10.924;2024-01-11T12:59:08;19.00;;;11.57;;
3133;SDS011;1577;49.912;10.924;2024-01-11T13:01:35;19.65;;;12.55;;
3133;SDS011;1577;49.912;10.924;2024-01-11T13:04:01;22.23;;;12.57;;
3133;SDS011;1577;49.912;10.924;2024-01-11T13:06:28;22.25;;;13.00;;
3133;SDS011;1577;49.912;10.924;2024-01-11T13:08:59;24.52;;;12.98;;
3133;SDS011;1577;49.912;10.924;2024-01-11T13:11:25;20.20;;;12.90;;
3133;SDS011;1577;49.912;10.924;2024-01-11T13:13:51;20.63;;;12.90;;
3133;SDS011;1577;49.912;10.924;2024-01-11T13:16:17;26.80;;;15.73;;
3133;SDS011;1577;49.912;10.924;2024-01-11T13:18:44;19.70;;;10.90;;
3133;SDS011;1577;49.912;10.924;2024-01-11T13:21:10;22.52;;;12.95;;
3133;SDS011;1577;49.912;10.924;2024-01-11T13:23:37;24.98;;;15.60;;
3133;SDS011;1577;49.912;10.924;2024-01-11T13:26:03;29.50;;;16.98;;
3133;SDS011;1577;49.912;10.924;2024-01-11T13:28:29;28.80;;;17.23;;
3133;SDS011;1577;49.912;10.924;2024-01-11T13:30:55;26.23;;;15.13;;
3133;SDS011;1577;49.912;10.924;2024-01-11T13:33:21;22.97;;;13.07;;
3133;SDS011;1577;49.912;10.924;2024-01-11T13:35:48;23.95;;;14.25;;
3133;SDS011;1577;49.912;10.924;2024-01-11T13:38:14;24.60;;;13.70;;
3133;SDS011;1577;49.912;10.924;2024-01-11T13:40:40;25.60;;;16.00;;
3133;SDS011;1577;49.912;10.924;2024-01-11T13:43:08;24.38;;;14.63;;
3133;SDS011;1577;49.912;10.924;2024-01-11T13:45:34;24.52;;;14.18;;
3133;SDS011;1577;49.912;10.924;2024-01-11T13:48:03;25.20;;;14.00;;
3133;SDS011;1577;49.912;10.924;2024-01-11T13:50:29;25.65;;;14.75;;
3133;SDS011;1577;49.912;10.924;2024-01-11T13:52:56;25.00;;;14.95;;
3133;SDS011;1577;49.912;10.924;2024-01-11T13:55:21;23.63;;;14.13;;
3133;SDS011;1577;49.912;10.924;2024-01-11T13:57:47;25.20;;;15.00;;
3133;SDS011;1577;49.912;10.924;2024-01-11T14:00:14;24.67;;;13.75;;
3133;SDS011;1577;49.912;10.924;2024-01-11T14:02:42;22.67;;;14.05;;
3133;SDS011;1577;49.912;10.924;2024-01-11T14:05:08;27.13;;;14.43;;
3133;SDS011;1577;49.912;10.924;2024-01-11T14:07:39;28.05;;;15.35;;
3133;SDS011;1577;49.912;10.924;2024-01-11T14:10:05;25.15;;;13.45;;
3133;SDS011;1577;49.912;10.924;2024-01-11T14:12:33;25.15;;;15.05;;
3133;SDS011;1577;49.912;10.924;2024-01-11T14:14:59;23.75;;;14.38;;
3133;SDS011;1577;49.912;10.924;2024-01-11T14:17:26;27.52;;;15.77;;
3133;SDS011;1577;49.912;10.924;2024-01-11T14:19:51;26.47;;;15.10;;
3133;SDS011;1577;49.912;10.924;2024-01-11T14:22:17;23.50;;;13.53;;
3133;SDS011;1577;49.912;10.924;2024-01-11T14:24:43;27.00;;;14.07;;
3133;SDS011;1577;49.912;10.924;2024-01-11T14:27:08;26.50;;;14.03;;
3133;SDS011;1577;49.912;10.924;2024-01-11T14:29:34;24.65;;;12.52;;
3133;SDS011;1577;49.912;10.924;2024-01-11T14:32:00;23.70;;;14.23;;